Terminal Aerodrome Forecast
Issued by NWS

Home | Current Version | Previous Version | Text Only | Print | Product List | Glossary On
Versions: 1 2 3 4 5 6 7 8 9 10 11 12 13 14 15 16 17 18
000
FTUS45 KABQ 312326
TAFSAF
TAF
KSAF 312326Z 0100/0124 36010KT P6SM VCSH BKN080
     FM010300 13009KT P6SM SCT060 BKN090
     FM010700 03006KT P6SM FEW025 BKN090
      TEMPO 0111/0115 BKN025
     FM011900 24010KT P6SM SCT060 SCT090
     FM012100 24010KT P6SM VCTS SCT060CB BKN090=

USA.gov is the U.S. government's official web portal to all federal, state and local government web resources and services.